East Hampstead, New Hampshire
Current Conditions -  °F | °C
As of 11:54 PM on Wednesday 22 Oct 2014 (Local Time) from KLWM Reporting Station
Light Rain Light Rain  
Wind Chill: 41°   Ceiling: 1100
Heat Index: 49°   Visibility: 9mi
Dew Point: 46°   Wind: 28mph
Humidity: 90%   Direction: 40°NE
Pressure: 29.85"   Gusts: 39mph
Location:  42.89°N, 71.14°W
Report Text: KLWM 230354Z AUTO 04024G34KT 9SM -RA OVC011 09/08 A2985 RMK AO2 PK WND 03036/0338 SLP108 P0013 T00940078
Loading
Personal Weather Stations






























Interactive Weather Map
Tropical Storm Tracking
New forecast layout! Learn more

10-Day Weather Forecast

Advertisements
Track Severe Weather on mobile